Time;durP1;ratioP1;P1;durP2;ratioP2;P2;SDS_P1;SDS_P2;PMS_P1;PMS_P2;Temp;Humidity;BMP_temperature;BMP_pressure;BME280_temperature;BME280_humidity;BME280_pressure;Samples;Min_cycle;Max_cycle;Signal;HPM_P1;HPM_P2
2022/10/31 00:00:37;;;;;;;;;;;22.90;46.30;;;;;;475058;251;1385;-52
2022/10/31 00:02:39;;;;;;;;;;;22.90;46.20;;;;;;475035;251;2204;-53
2022/10/31 00:04:40;;;;;;;;;;;22.90;46.10;;;;;;474631;251;1308;-53
2022/10/31 00:06:41;;;;;;;;;;;22.90;46.00;;;;;;474963;251;1223;-52
2022/10/31 00:08:42;;;;;;;;;;;22.90;46.00;;;;;;475083;251;1214;-52
2022/10/31 00:10:44;;;;;;;;;;;22.90;45.90;;;;;;474625;251;1417;-53
2022/10/31 00:12:45;;;;;;;;;;;22.90;45.80;;;;;;474787;251;1268;-53
2022/10/31 00:14:47;;;;;;;;;;;23.00;45.80;;;;;;474767;251;1300;-52
2022/10/31 00:16:48;;;;;;;;;;;22.90;45.70;;;;;;474686;251;1301;-53
2022/10/31 00:18:50;;;;;;;;;;;23.00;45.80;;;;;;474654;251;1247;-53
2022/10/31 00:20:51;;;;;;;;;;;23.00;45.60;;;;;;475115;251;1226;-52
2022/10/31 00:22:52;;;;;;;;;;;23.00;45.50;;;;;;474801;251;2173;-53
2022/10/31 00:24:54;;;;;;;;;;;22.90;45.40;;;;;;474908;251;1194;-52
2022/10/31 00:26:55;;;;;;;;;;;22.90;45.50;;;;;;474783;251;1613;-52
2022/10/31 00:28:56;;;;;;;;;;;22.90;45.40;;;;;;475084;251;1305;-52
2022/10/31 00:30:57;;;;;;;;;;;23.00;45.40;;;;;;475081;251;1259;-53
2022/10/31 00:32:59;;;;;;;;;;;23.00;45.20;;;;;;474647;251;1416;-52
2022/10/31 00:35:00;;;;;;;;;;;23.00;45.20;;;;;;474648;251;1328;-52
2022/10/31 00:37:01;;;;;;;;;;;23.00;45.10;;;;;;475009;251;1297;-52
2022/10/31 00:39:03;;;;;;;;;;;23.00;45.10;;;;;;474664;251;1210;-52
2022/10/31 00:41:04;;;;;;;;;;;23.00;45.10;;;;;;474793;251;1181;-52
2022/10/31 00:43:05;;;;;;;;;;;23.00;45.10;;;;;;474670;251;2145;-52
2022/10/31 00:45:07;;;;;;;;;;;23.00;45.00;;;;;;474689;251;1234;-53
2022/10/31 00:47:08;;;;;;;;;;;23.00;45.00;;;;;;474690;251;1120;-53
2022/10/31 00:49:09;;;;;;;;;;;23.00;45.00;;;;;;474715;251;1133;-52
2022/10/31 00:51:11;;;;;;;;;;;23.00;44.90;;;;;;474695;251;1348;-52
2022/10/31 00:53:12;;;;;;;;;;;23.00;44.90;;;;;;475089;251;1260;-53
2022/10/31 00:55:13;;;;;;;;;;;23.00;44.70;;;;;;474820;251;1161;-53
2022/10/31 00:57:15;;;;;;;;;;;23.00;44.70;;;;;;474799;251;1372;-53
2022/10/31 00:59:16;;;;;;;;;;;23.00;44.60;;;;;;474919;251;1340;-53
2022/10/31 01:01:17;;;;;;;;;;;23.00;44.60;;;;;;474646;251;1328;-53
2022/10/31 01:03:19;;;;;;;;;;;23.00;44.50;;;;;;475066;251;2184;-53
2022/10/31 01:05:20;;;;;;;;;;;23.00;44.50;;;;;;475077;251;1591;-53
2022/10/31 01:07:21;;;;;;;;;;;23.00;44.40;;;;;;474827;251;1455;-52
2022/10/31 01:09:23;;;;;;;;;;;23.00;44.50;;;;;;474645;251;1364;-54
2022/10/31 01:11:24;;;;;;;;;;;23.00;44.40;;;;;;474932;251;1378;-53
2022/10/31 01:13:25;;;;;;;;;;;23.00;44.30;;;;;;474650;251;1327;-53
2022/10/31 01:15:26;;;;;;;;;;;23.00;44.30;;;;;;474663;251;1282;-53
2022/10/31 01:17:28;;;;;;;;;;;23.00;44.20;;;;;;474675;251;1169;-53
2022/10/31 01:19:29;;;;;;;;;;;23.00;44.20;;;;;;474661;251;1312;-53
2022/10/31 01:21:30;;;;;;;;;;;23.00;44.20;;;;;;475086;251;2181;-52
2022/10/31 01:23:32;;;;;;;;;;;23.00;44.10;;;;;;474930;251;2196;-52
2022/10/31 01:25:33;;;;;;;;;;;23.00;44.10;;;;;;475088;251;1359;-52
2022/10/31 01:27:34;;;;;;;;;;;23.00;44.20;;;;;;474654;251;1229;-52
2022/10/31 01:29:36;;;;;;;;;;;23.00;44.00;;;;;;474681;251;1280;-53
2022/10/31 01:31:37;;;;;;;;;;;23.00;44.00;;;;;;474901;251;1291;-52
2022/10/31 01:33:38;;;;;;;;;;;23.00;44.00;;;;;;474971;251;1328;-52
2022/10/31 01:35:40;;;;;;;;;;;23.00;44.00;;;;;;474905;251;1259;-53
2022/10/31 01:37:41;;;;;;;;;;;23.00;43.90;;;;;;474708;251;1269;-53
2022/10/31 01:39:42;;;;;;;;;;;23.00;44.00;;;;;;474688;251;1259;-52
2022/10/31 01:41:44;;;;;;;;;;;23.00;43.90;;;;;;474975;251;1172;-53
2022/10/31 01:43:45;;;;;;;;;;;23.00;43.90;;;;;;474894;251;2145;-53
2022/10/31 01:45:46;;;;;;;;;;;23.00;43.80;;;;;;474717;251;1337;-53
2022/10/31 01:47:48;;;;;;;;;;;23.10;43.80;;;;;;475089;251;1263;-52
2022/10/31 01:49:49;;;;;;;;;;;23.00;43.80;;;;;;475097;251;1665;-53
2022/10/31 01:51:50;;;;;;;;;;;23.10;43.70;;;;;;474624;251;1681;-53
2022/10/31 01:53:52;;;;;;;;;;;23.10;43.70;;;;;;475070;251;1315;-53
2022/10/31 01:55:53;;;;;;;;;;;23.00;43.60;;;;;;474738;251;1311;-53
2022/10/31 01:57:54;;;;;;;;;;;23.10;43.60;;;;;;474585;251;1517;-53
2022/10/31 01:59:56;;;;;;;;;;;23.10;43.60;;;;;;474614;251;1314;-53
2022/10/31 02:01:57;;;;;;;;;;;23.00;43.50;;;;;;474505;251;1547;-53
2022/10/31 02:03:58;;;;;;;;;;;23.00;43.50;;;;;;474816;251;2156;-52
2022/10/31 02:06:00;;;;;;;;;;;23.00;43.60;;;;;;474490;251;1316;-52
2022/10/31 02:08:01;;;;;;;;;;;23.00;43.50;;;;;;474584;251;1402;-53
2022/10/31 02:10:02;;;;;;;;;;;23.00;43.50;;;;;;474746;251;1218;-54
2022/10/31 02:12:04;;;;;;;;;;;23.00;43.50;;;;;;474873;251;1245;-53
2022/10/31 02:14:05;;;;;;;;;;;23.00;43.40;;;;;;474881;251;1238;-53
2022/10/31 02:16:06;;;;;;;;;;;23.00;43.50;;;;;;474631;251;1421;-53
2022/10/31 02:18:07;;;;;;;;;;;23.00;43.40;;;;;;474649;251;1246;-51
2022/10/31 02:20:09;;;;;;;;;;;23.00;43.20;;;;;;475008;251;1264;-52
2022/10/31 02:22:10;;;;;;;;;;;23.10;43.20;;;;;;474606;251;1322;-53
2022/10/31 02:24:11;;;;;;;;;;;23.00;43.30;;;;;;474648;251;2201;-53
2022/10/31 02:26:13;;;;;;;;;;;23.10;43.30;;;;;;474676;251;1687;-53
2022/10/31 02:28:14;;;;;;;;;;;23.00;43.20;;;;;;474802;251;1216;-53
2022/10/31 02:30:15;;;;;;;;;;;23.00;43.10;;;;;;475079;251;1309;-53
2022/10/31 02:32:17;;;;;;;;;;;23.10;43.20;;;;;;474834;251;1233;-53
2022/10/31 02:34:18;;;;;;;;;;;23.00;43.30;;;;;;475049;251;1544;-53
2022/10/31 02:36:19;;;;;;;;;;;23.00;43.50;;;;;;474627;251;1481;-52
2022/10/31 02:38:21;;;;;;;;;;;23.00;43.60;;;;;;474642;251;1373;-53
2022/10/31 02:40:22;;;;;;;;;;;22.90;43.80;;;;;;474644;251;1343;-52
2022/10/31 02:42:23;;;;;;;;;;;22.90;44.00;;;;;;474772;251;1261;-53
2022/10/31 02:44:25;;;;;;;;;;;22.90;44.00;;;;;;474600;251;2165;-52
2022/10/31 02:46:26;;;;;;;;;;;22.90;44.10;;;;;;474657;251;1411;-53
2022/10/31 02:48:27;;;;;;;;;;;22.90;44.10;;;;;;474857;251;1773;-53
2022/10/31 02:50:29;;;;;;;;;;;22.90;44.20;;;;;;474674;251;1393;-53
2022/10/31 02:52:30;;;;;;;;;;;22.90;44.30;;;;;;474676;251;1243;-53
2022/10/31 02:54:31;;;;;;;;;;;22.90;44.40;;;;;;474700;251;1344;-53
2022/10/31 02:56:33;;;;;;;;;;;22.90;44.30;;;;;;474914;251;1219;-52
2022/10/31 02:58:34;;;;;;;;;;;22.90;44.40;;;;;;474747;251;1376;-53
2022/10/31 03:00:35;;;;;;;;;;;22.90;44.40;;;;;;474799;251;1262;-53
2022/10/31 03:02:37;;;;;;;;;;;22.90;44.40;;;;;;474781;251;1325;-52
2022/10/31 03:04:38;;;;;;;;;;;22.90;44.50;;;;;;474839;251;2153;-52
2022/10/31 03:06:39;;;;;;;;;;;22.90;44.50;;;;;;474881;251;1311;-53
2022/10/31 03:08:40;;;;;;;;;;;22.90;44.60;;;;;;475077;251;1317;-53
2022/10/31 03:10:42;;;;;;;;;;;22.90;44.60;;;;;;474879;251;1214;-52
2022/10/31 03:12:43;;;;;;;;;;;22.90;44.60;;;;;;474597;251;1857;-53
2022/10/31 03:14:44;;;;;;;;;;;22.90;44.60;;;;;;474971;251;1229;-53
2022/10/31 03:16:46;;;;;;;;;;;22.90;44.70;;;;;;474783;251;1226;-53
2022/10/31 03:18:48;;;;;;;;;;;22.90;44.70;;;;;;475098;251;1276;-52
2022/10/31 03:20:49;;;;;;;;;;;22.90;44.70;;;;;;474697;251;1294;-53
2022/10/31 03:22:50;;;;;;;;;;;22.90;44.70;;;;;;474658;251;1664;-53
2022/10/31 03:24:52;;;;;;;;;;;22.80;44.70;;;;;;474971;251;2196;-52
2022/10/31 03:26:53;;;;;;;;;;;22.90;44.80;;;;;;474659;251;1651;-53
2022/10/31 03:28:54;;;;;;;;;;;22.80;44.80;;;;;;474854;251;1542;-52
2022/10/31 03:30:55;;;;;;;;;;;22.80;44.90;;;;;;474755;251;1122;-53
2022/10/31 03:32:57;;;;;;;;;;;22.80;44.90;;;;;;474714;251;1158;-52
2022/10/31 03:34:58;;;;;;;;;;;22.80;44.90;;;;;;474764;251;1144;-53
2022/10/31 03:36:59;;;;;;;;;;;22.80;44.90;;;;;;474690;251;1310;-53
2022/10/31 03:39:01;;;;;;;;;;;22.80;45.00;;;;;;475033;251;1279;-53
2022/10/31 03:41:02;;;;;;;;;;;22.80;44.90;;;;;;474979;251;1210;-52
2022/10/31 03:43:03;;;;;;;;;;;22.80;44.90;;;;;;475042;251;1241;-53
2022/10/31 03:45:05;;;;;;;;;;;22.80;45.00;;;;;;474828;251;2118;-53
2022/10/31 03:47:06;;;;;;;;;;;22.80;45.00;;;;;;474748;251;1191;-53
2022/10/31 03:49:07;;;;;;;;;;;22.80;45.00;;;;;;474659;251;1240;-53
2022/10/31 03:51:09;;;;;;;;;;;22.80;45.10;;;;;;474958;251;1202;-52
2022/10/31 03:53:10;;;;;;;;;;;22.80;45.10;;;;;;474668;251;1234;-53
2022/10/31 03:55:11;;;;;;;;;;;22.80;45.10;;;;;;474640;251;1303;-52
2022/10/31 03:57:13;;;;;;;;;;;22.80;45.10;;;;;;474945;251;1439;-53
2022/10/31 03:59:14;;;;;;;;;;;22.80;45.10;;;;;;474802;251;1221;-53
2022/10/31 04:01:15;;;;;;;;;;;22.80;45.10;;;;;;474812;251;1337;-52
2022/10/31 04:03:17;;;;;;;;;;;22.80;45.20;;;;;;474655;251;1294;-52
2022/10/31 04:05:18;;;;;;;;;;;22.80;45.10;;;;;;474623;251;2257;-54
2022/10/31 04:07:19;;;;;;;;;;;22.80;45.10;;;;;;474910;251;1213;-52
2022/10/31 04:09:21;;;;;;;;;;;22.80;45.20;;;;;;475080;251;1208;-53
2022/10/31 04:11:22;;;;;;;;;;;22.80;45.10;;;;;;475029;251;1195;-53
2022/10/31 04:13:23;;;;;;;;;;;22.80;45.20;;;;;;474781;251;1200;-52
2022/10/31 04:15:25;;;;;;;;;;;22.80;45.20;;;;;;475115;251;1339;-53
2022/10/31 04:17:26;;;;;;;;;;;22.80;45.20;;;;;;475097;251;1325;-52
2022/10/31 04:19:27;;;;;;;;;;;22.80;45.20;;;;;;474776;251;1253;-53
2022/10/31 04:21:29;;;;;;;;;;;22.80;45.30;;;;;;475027;251;1236;-52
2022/10/31 04:23:30;;;;;;;;;;;22.80;45.30;;;;;;475078;251;2160;-53
2022/10/31 04:25:31;;;;;;;;;;;22.80;45.30;;;;;;475119;251;1186;-52
2022/10/31 04:27:33;;;;;;;;;;;22.80;45.30;;;;;;474893;251;1267;-53
2022/10/31 04:29:34;;;;;;;;;;;22.80;45.40;;;;;;474837;251;1213;-52
2022/10/31 04:31:35;;;;;;;;;;;22.80;45.40;;;;;;474758;251;1163;-53
2022/10/31 04:33:36;;;;;;;;;;;22.80;45.30;;;;;;474727;251;1328;-52
2022/10/31 04:35:38;;;;;;;;;;;22.80;45.40;;;;;;474695;251;1219;-53
2022/10/31 04:37:39;;;;;;;;;;;22.80;45.40;;;;;;474873;251;1421;-52
2022/10/31 04:39:40;;;;;;;;;;;22.80;45.40;;;;;;475008;251;1207;-52
2022/10/31 04:41:42;;;;;;;;;;;22.80;45.40;;;;;;474675;251;1271;-53
2022/10/31 04:43:43;;;;;;;;;;;22.80;45.40;;;;;;474686;251;2166;-52
2022/10/31 04:45:44;;;;;;;;;;;22.80;45.40;;;;;;474800;251;1278;-53
2022/10/31 04:47:46;;;;;;;;;;;22.80;45.40;;;;;;474678;251;1289;-53
2022/10/31 04:49:47;;;;;;;;;;;22.80;45.40;;;;;;475095;251;1261;-53
2022/10/31 04:51:48;;;;;;;;;;;22.80;45.40;;;;;;475085;251;1353;-52
2022/10/31 04:53:50;;;;;;;;;;;22.80;45.40;;;;;;475102;251;1192;-53
2022/10/31 04:55:51;;;;;;;;;;;22.80;45.40;;;;;;474688;251;1197;-52
2022/10/31 04:57:52;;;;;;;;;;;22.80;45.40;;;;;;474682;251;1181;-52
2022/10/31 04:59:54;;;;;;;;;;;22.80;45.50;;;;;;474653;251;1227;-53
2022/10/31 05:01:55;;;;;;;;;;;22.80;45.50;;;;;;474813;251;1313;-53
2022/10/31 05:03:56;;;;;;;;;;;22.80;45.50;;;;;;474643;251;2193;-52
2022/10/31 05:05:58;;;;;;;;;;;22.80;45.50;;;;;;474781;251;1226;-53
2022/10/31 05:07:59;;;;;;;;;;;22.80;45.60;;;;;;475069;251;1293;-53
2022/10/31 05:10:01;;;;;;;;;;;22.80;45.60;;;;;;475077;251;1270;-54
2022/10/31 05:12:02;;;;;;;;;;;22.80;45.50;;;;;;474999;251;1208;-53
2022/10/31 05:14:03;;;;;;;;;;;22.80;45.60;;;;;;475015;251;1283;-53
2022/10/31 05:16:05;;;;;;;;;;;22.70;45.60;;;;;;474655;251;1284;-53
2022/10/31 05:18:06;;;;;;;;;;;22.80;45.60;;;;;;474661;251;1232;-52
2022/10/31 05:20:07;;;;;;;;;;;22.80;45.60;;;;;;475081;251;1275;-52
2022/10/31 05:22:08;;;;;;;;;;;22.80;45.60;;;;;;475066;251;1219;-53
2022/10/31 05:24:10;;;;;;;;;;;22.80;45.70;;;;;;474929;251;2189;-53
2022/10/31 05:26:11;;;;;;;;;;;22.70;45.60;;;;;;474656;251;1368;-53
2022/10/31 05:28:12;;;;;;;;;;;22.80;45.70;;;;;;474838;251;1254;-53
2022/10/31 05:30:14;;;;;;;;;;;22.80;45.60;;;;;;474666;251;1653;-53
2022/10/31 05:32:15;;;;;;;;;;;22.80;45.60;;;;;;475101;251;1649;-52
2022/10/31 05:34:16;;;;;;;;;;;22.80;45.70;;;;;;474821;251;1409;-53
2022/10/31 05:36:18;;;;;;;;;;;22.70;45.60;;;;;;475106;251;1627;-52
2022/10/31 05:38:19;;;;;;;;;;;22.80;45.70;;;;;;474654;251;1244;-53
2022/10/31 05:40:20;;;;;;;;;;;22.70;45.70;;;;;;474650;251;1336;-53
2022/10/31 05:42:22;;;;;;;;;;;22.70;45.80;;;;;;474763;251;1226;-52
2022/10/31 05:44:23;;;;;;;;;;;22.70;45.80;;;;;;474948;251;2209;-52
2022/10/31 05:46:24;;;;;;;;;;;22.80;45.80;;;;;;475085;251;1197;-53
2022/10/31 05:48:26;;;;;;;;;;;22.70;45.70;;;;;;474712;251;1485;-53
2022/10/31 05:50:27;;;;;;;;;;;22.70;45.70;;;;;;475099;251;1206;-52
2022/10/31 05:52:28;;;;;;;;;;;22.70;45.70;;;;;;474723;251;1281;-52
2022/10/31 05:54:30;;;;;;;;;;;22.70;45.70;;;;;;475086;251;1215;-52
2022/10/31 05:56:31;;;;;;;;;;;22.80;45.70;;;;;;474945;251;1310;-53
2022/10/31 05:58:32;;;;;;;;;;;22.80;45.70;;;;;;475055;251;1285;-52
2022/10/31 06:00:34;;;;;;;;;;;22.80;45.70;;;;;;474820;251;1313;-53
2022/10/31 06:02:35;;;;;;;;;;;22.80;45.70;;;;;;474711;251;2270;-52
2022/10/31 06:04:36;;;;;;;;;;;22.80;45.70;;;;;;475056;251;2158;-53
2022/10/31 06:06:38;;;;;;;;;;;22.80;45.70;;;;;;475082;251;1269;-52
2022/10/31 06:08:39;;;;;;;;;;;22.80;45.60;;;;;;475094;251;1288;-52
2022/10/31 06:10:40;;;;;;;;;;;22.80;45.70;;;;;;475105;251;1222;-52
2022/10/31 06:12:42;;;;;;;;;;;22.80;45.70;;;;;;474983;251;1201;-53
2022/10/31 06:14:43;;;;;;;;;;;22.80;45.70;;;;;;474816;251;1235;-53
2022/10/31 06:16:44;;;;;;;;;;;22.80;45.70;;;;;;474691;251;1328;-53
2022/10/31 06:18:46;;;;;;;;;;;22.80;45.70;;;;;;474659;251;1177;-53
2022/10/31 06:20:47;;;;;;;;;;;22.80;45.70;;;;;;475087;251;1223;-52
2022/10/31 06:22:48;;;;;;;;;;;22.80;45.70;;;;;;474646;251;1227;-53
2022/10/31 06:24:50;;;;;;;;;;;22.80;45.70;;;;;;474895;251;2196;-53
2022/10/31 06:26:51;;;;;;;;;;;22.80;45.80;;;;;;475081;251;1244;-52
2022/10/31 06:28:52;;;;;;;;;;;22.80;45.80;;;;;;474653;251;1240;-53
2022/10/31 06:30:54;;;;;;;;;;;22.80;45.80;;;;;;474788;251;1233;-52
2022/10/31 06:32:55;;;;;;;;;;;22.80;45.80;;;;;;474842;251;1395;-52
2022/10/31 06:34:56;;;;;;;;;;;22.80;45.80;;;;;;474978;251;1360;-53
2022/10/31 06:36:58;;;;;;;;;;;22.80;45.80;;;;;;474640;251;1318;-52
2022/10/31 06:38:59;;;;;;;;;;;22.80;45.80;;;;;;474943;251;1398;-51
2022/10/31 06:41:00;;;;;;;;;;;22.80;45.80;;;;;;474718;251;1249;-53
2022/10/31 06:43:01;;;;;;;;;;;22.80;45.80;;;;;;474662;251;1198;-52
2022/10/31 06:45:03;;;;;;;;;;;22.80;45.80;;;;;;475005;251;2173;-53
2022/10/31 06:47:04;;;;;;;;;;;22.80;45.80;;;;;;475031;251;1203;-52
2022/10/31 06:49:05;;;;;;;;;;;22.80;45.80;;;;;;474783;251;1203;-52
2022/10/31 06:51:07;;;;;;;;;;;22.80;45.80;;;;;;475079;251;1297;-52
2022/10/31 06:53:08;;;;;;;;;;;22.80;45.80;;;;;;475054;251;1276;-53
2022/10/31 06:55:09;;;;;;;;;;;22.80;45.80;;;;;;474726;251;1292;-53
2022/10/31 06:57:11;;;;;;;;;;;22.80;45.90;;;;;;474689;251;1197;-52
2022/10/31 06:59:12;;;;;;;;;;;22.80;45.90;;;;;;475072;251;1237;-52
2022/10/31 07:01:13;;;;;;;;;;;22.80;45.90;;;;;;474780;251;1231;-52
2022/10/31 07:03:15;;;;;;;;;;;22.70;45.90;;;;;;474849;251;1180;-51
2022/10/31 07:05:16;;;;;;;;;;;22.80;45.90;;;;;;475088;251;2145;-52
2022/10/31 07:07:20;;;;;;;;;;;22.80;45.90;;;;;;474938;251;1273;-53
2022/10/31 07:09:19;;;;;;;;;;;22.70;45.90;;;;;;474513;251;2211;-53
2022/10/31 07:11:20;;;;;;;;;;;22.80;45.90;;;;;;474723;251;1344;-52
2022/10/31 07:13:25;;;;;;;;;;;22.80;45.90;;;;;;475104;251;1381;-53
2022/10/31 07:15:23;;;;;;;;;;;22.80;45.90;;;;;;474742;251;1441;-52
2022/10/31 07:17:24;;;;;;;;;;;22.70;45.90;;;;;;474879;251;1279;-53
2022/10/31 07:19:26;;;;;;;;;;;22.70;45.90;;;;;;474888;251;1183;-53
2022/10/31 07:21:27;;;;;;;;;;;22.70;45.90;;;;;;474656;251;1262;-53
2022/10/31 07:23:28;;;;;;;;;;;22.70;45.90;;;;;;474786;251;1306;-52
2022/10/31 07:25:30;;;;;;;;;;;22.70;45.90;;;;;;475054;251;2204;-53
2022/10/31 07:27:31;;;;;;;;;;;22.70;45.90;;;;;;474654;251;1273;-52
2022/10/31 07:29:32;;;;;;;;;;;22.70;45.90;;;;;;474661;251;1233;-52
2022/10/31 07:31:34;;;;;;;;;;;22.70;46.00;;;;;;474816;251;1353;-53
2022/10/31 07:33:35;;;;;;;;;;;22.70;46.00;;;;;;475062;251;1325;-52
2022/10/31 07:35:36;;;;;;;;;;;22.70;46.00;;;;;;474644;251;1211;-52
2022/10/31 07:37:38;;;;;;;;;;;22.70;46.00;;;;;;475062;251;1432;-53
2022/10/31 07:39:39;;;;;;;;;;;22.70;46.10;;;;;;474644;251;1567;-53
2022/10/31 07:41:40;;;;;;;;;;;22.70;46.10;;;;;;474645;251;1241;-52
2022/10/31 07:43:42;;;;;;;;;;;22.70;46.10;;;;;;474623;251;1219;-53
2022/10/31 07:45:43;;;;;;;;;;;22.70;46.10;;;;;;474614;251;2158;-51
2022/10/31 07:47:44;;;;;;;;;;;22.60;46.10;;;;;;474886;251;1384;-53
2022/10/31 07:49:46;;;;;;;;;;;22.70;46.10;;;;;;474948;251;1343;-53
2022/10/31 07:51:47;;;;;;;;;;;22.60;46.10;;;;;;475057;251;1693;-52
2022/10/31 07:53:49;;;;;;;;;;;22.60;46.10;;;;;;474864;251;1332;-53
2022/10/31 07:55:50;;;;;;;;;;;22.60;46.10;;;;;;475066;251;1223;-53
2022/10/31 07:57:51;;;;;;;;;;;22.60;46.10;;;;;;475120;251;1214;-53
2022/10/31 07:59:52;;;;;;;;;;;22.60;46.20;;;;;;475142;251;1211;-53
2022/10/31 08:01:54;;;;;;;;;;;22.60;46.20;;;;;;474784;251;1201;-53
2022/10/31 08:03:55;;;;;;;;;;;22.60;46.20;;;;;;475126;251;1168;-52
2022/10/31 08:05:57;;;;;;;;;;;22.60;46.20;;;;;;474699;251;2197;-53
2022/10/31 08:07:58;;;;;;;;;;;22.60;46.20;;;;;;474825;251;1076;-52
2022/10/31 08:09:59;;;;;;;;;;;22.60;46.20;;;;;;474763;251;1086;-53
2022/10/31 08:12:01;;;;;;;;;;;22.60;46.30;;;;;;475140;251;1091;-51
2022/10/31 08:14:02;;;;;;;;;;;22.60;46.30;;;;;;475147;251;1123;-52
2022/10/31 08:16:04;;;;;;;;;;;22.60;46.30;;;;;;475059;251;1241;-52
2022/10/31 08:18:05;;;;;;;;;;;22.60;46.30;;;;;;474678;251;1248;-53
2022/10/31 08:20:06;;;;;;;;;;;22.70;46.30;;;;;;474955;251;1252;-52
2022/10/31 08:22:07;;;;;;;;;;;22.60;46.20;;;;;;474587;251;1211;-52
2022/10/31 08:24:09;;;;;;;;;;;22.60;46.20;;;;;;475058;251;1344;-53
2022/10/31 08:26:10;;;;;;;;;;;22.60;46.30;;;;;;474809;251;2204;-53
2022/10/31 08:28:11;;;;;;;;;;;22.70;46.30;;;;;;475086;251;1264;-53
2022/10/31 08:30:13;;;;;;;;;;;22.70;46.30;;;;;;474750;251;1453;-52
2022/10/31 08:32:14;;;;;;;;;;;22.70;46.30;;;;;;474766;251;1243;-52
2022/10/31 08:34:15;;;;;;;;;;;22.70;46.30;;;;;;474819;251;1346;-52
2022/10/31 08:36:17;;;;;;;;;;;22.70;46.30;;;;;;474656;251;1298;-52
2022/10/31 08:38:18;;;;;;;;;;;22.70;46.20;;;;;;474710;251;1294;-52
2022/10/31 08:40:19;;;;;;;;;;;22.70;46.30;;;;;;474674;251;1209;-53
2022/10/31 08:42:21;;;;;;;;;;;22.70;46.20;;;;;;474985;251;1211;-52
2022/10/31 08:44:22;;;;;;;;;;;22.70;46.30;;;;;;474653;251;1173;-53
2022/10/31 08:46:23;;;;;;;;;;;22.70;46.20;;;;;;474633;251;2173;-52
2022/10/31 08:48:25;;;;;;;;;;;22.70;46.30;;;;;;474647;251;1288;-52
2022/10/31 08:50:26;;;;;;;;;;;22.70;46.30;;;;;;474928;251;1227;-52
2022/10/31 08:52:27;;;;;;;;;;;22.70;46.30;;;;;;475048;251;1216;-53
2022/10/31 08:54:29;;;;;;;;;;;22.80;46.30;;;;;;474955;251;1407;-52
2022/10/31 08:56:30;;;;;;;;;;;22.70;46.30;;;;;;475048;251;1320;-52
2022/10/31 08:58:31;;;;;;;;;;;22.70;46.30;;;;;;474863;251;1390;-53
2022/10/31 09:00:33;;;;;;;;;;;22.70;46.30;;;;;;474774;251;1253;-52
2022/10/31 09:02:34;;;;;;;;;;;22.70;46.30;;;;;;474582;251;1226;-52
2022/10/31 09:04:35;;;;;;;;;;;22.70;46.30;;;;;;474591;251;1239;-53
2022/10/31 09:06:37;;;;;;;;;;;22.80;46.30;;;;;;474979;251;2188;-52
2022/10/31 09:08:38;;;;;;;;;;;22.80;46.30;;;;;;474864;251;1199;-52
2022/10/31 09:10:39;;;;;;;;;;;22.80;46.30;;;;;;474817;251;1205;-52
2022/10/31 09:12:41;;;;;;;;;;;22.80;46.30;;;;;;474962;251;1320;-53
2022/10/31 09:14:42;;;;;;;;;;;22.80;46.30;;;;;;474617;251;1172;-52
2022/10/31 09:16:43;;;;;;;;;;;22.80;46.30;;;;;;474666;251;1275;-53
2022/10/31 09:18:44;;;;;;;;;;;22.80;46.40;;;;;;474647;251;1335;-53
2022/10/31 09:20:46;;;;;;;;;;;22.80;46.30;;;;;;474636;251;1388;-53
2022/10/31 09:22:47;;;;;;;;;;;22.80;46.40;;;;;;474851;251;1209;-53
2022/10/31 09:24:48;;;;;;;;;;;22.80;46.30;;;;;;474639;251;1511;-52
2022/10/31 09:26:50;;;;;;;;;;;22.80;46.40;;;;;;474950;251;2208;-53
2022/10/31 09:28:51;;;;;;;;;;;22.80;46.50;;;;;;475077;251;1160;-52
2022/10/31 09:30:52;;;;;;;;;;;22.80;46.40;;;;;;475079;251;1193;-53
2022/10/31 09:32:54;;;;;;;;;;;22.80;46.50;;;;;;474744;251;1234;-52
2022/10/31 09:34:55;;;;;;;;;;;22.80;46.40;;;;;;474825;251;1248;-52
2022/10/31 09:36:56;;;;;;;;;;;22.80;46.40;;;;;;475065;251;1247;-52
2022/10/31 09:38:58;;;;;;;;;;;22.80;46.50;;;;;;474663;251;1207;-53
2022/10/31 09:40:59;;;;;;;;;;;22.80;46.50;;;;;;475113;251;1157;-53
2022/10/31 09:43:00;;;;;;;;;;;22.80;46.40;;;;;;474685;251;1132;-53
2022/10/31 09:45:02;;;;;;;;;;;22.80;46.40;;;;;;475112;251;1125;-52
2022/10/31 09:47:03;;;;;;;;;;;22.80;46.30;;;;;;474934;251;2165;-52
2022/10/31 09:49:04;;;;;;;;;;;22.90;46.40;;;;;;475013;251;1145;-53
2022/10/31 09:51:06;;;;;;;;;;;22.90;46.40;;;;;;475116;251;1132;-53
2022/10/31 09:53:07;;;;;;;;;;;22.90;46.40;;;;;;474721;251;1109;-53
2022/10/31 09:55:08;;;;;;;;;;;22.90;46.50;;;;;;474931;251;1159;-53
2022/10/31 09:57:10;;;;;;;;;;;22.80;46.40;;;;;;475090;251;1230;-53
2022/10/31 09:59:11;;;;;;;;;;;22.80;46.60;;;;;;474887;251;1328;-53
2022/10/31 10:01:12;;;;;;;;;;;22.80;46.60;;;;;;474866;251;1198;-53
2022/10/31 10:03:14;;;;;;;;;;;22.80;46.70;;;;;;474780;251;1395;-52
2022/10/31 10:05:15;;;;;;;;;;;22.80;46.70;;;;;;474966;251;1198;-52
2022/10/31 10:07:16;;;;;;;;;;;22.80;46.70;;;;;;474679;251;2122;-52
2022/10/31 10:09:17;;;;;;;;;;;22.80;46.70;;;;;;474655;251;1252;-52
2022/10/31 10:11:19;;;;;;;;;;;22.80;46.80;;;;;;474655;251;1680;-53
2022/10/31 10:13:20;;;;;;;;;;;22.80;46.80;;;;;;474640;251;1220;-53
2022/10/31 10:15:21;;;;;;;;;;;22.70;46.80;;;;;;474829;251;1247;-52
2022/10/31 10:17:23;;;;;;;;;;;22.70;46.80;;;;;;474415;251;1642;-52
2022/10/31 10:19:24;;;;;;;;;;;22.80;46.90;;;;;;474810;251;1284;-52
2022/10/31 10:21:25;;;;;;;;;;;22.70;46.90;;;;;;474438;251;1558;-53
2022/10/31 10:23:27;;;;;;;;;;;22.70;46.90;;;;;;474768;251;1256;-53
2022/10/31 10:25:28;;;;;;;;;;;22.70;46.90;;;;;;474775;251;1229;-53
2022/10/31 10:27:29;;;;;;;;;;;22.80;47.00;;;;;;474499;251;2192;-53
2022/10/31 10:29:31;;;;;;;;;;;22.70;46.90;;;;;;474629;251;1307;-53
2022/10/31 10:31:32;;;;;;;;;;;22.80;47.00;;;;;;474608;251;1291;-53
2022/10/31 10:33:34;;;;;;;;;;;22.80;47.00;;;;;;474605;251;1240;-53
2022/10/31 10:35:35;;;;;;;;;;;22.80;47.00;;;;;;474723;251;1229;-52
2022/10/31 10:37:36;;;;;;;;;;;22.80;47.00;;;;;;474647;251;1199;-51
2022/10/31 10:39:38;;;;;;;;;;;22.70;46.90;;;;;;474608;251;1792;-52
2022/10/31 10:41:39;;;;;;;;;;;22.80;47.00;;;;;;475039;251;1310;-52
2022/10/31 10:43:40;;;;;;;;;;;22.80;47.00;;;;;;474984;251;1381;-52
2022/10/31 10:48:01;;;;;;;;;;;22.70;46.90;;;;;;474845;251;1241;-52
2022/10/31 10:50:03;;;;;;;;;;;22.70;47.00;;;;;;474934;251;1228;-52
2022/10/31 10:52:04;;;;;;;;;;;22.70;46.90;;;;;;475050;251;1200;-52
2022/10/31 10:54:13;;;;;;;;;;;22.80;47.00;;;;;;474610;251;1285;-52
2022/10/31 10:56:06;;;;;;;;;;;22.80;47.00;;;;;;474095;251;1809;-52
2022/10/31 10:58:08;;;;;;;;;;;22.80;47.00;;;;;;474621;251;1379;-52
2022/10/31 11:00:09;;;;;;;;;;;22.80;47.00;;;;;;474958;251;1125;-52
2022/10/31 11:02:11;;;;;;;;;;;22.80;47.00;;;;;;474868;251;1100;-52
2022/10/31 11:04:12;;;;;;;;;;;22.80;47.00;;;;;;474646;251;1220;-52
2022/10/31 11:06:13;;;;;;;;;;;22.80;47.00;;;;;;474858;251;2166;-52
2022/10/31 11:08:15;;;;;;;;;;;22.80;47.00;;;;;;474640;251;1253;-52
2022/10/31 11:10:16;;;;;;;;;;;22.80;47.00;;;;;;475015;251;1180;-52
2022/10/31 11:12:17;;;;;;;;;;;22.80;47.00;;;;;;474834;251;1197;-52
2022/10/31 11:14:20;;;;;;;;;;;22.80;47.00;;;;;;474640;251;1226;-52
2022/10/31 11:16:20;;;;;;;;;;;22.80;47.00;;;;;;474715;251;2044;-52
2022/10/31 11:18:22;;;;;;;;;;;22.80;47.00;;;;;;474585;251;1318;-53
2022/10/31 11:20:23;;;;;;;;;;;22.80;47.00;;;;;;474570;251;1580;-52
2022/10/31 11:22:24;;;;;;;;;;;22.80;47.00;;;;;;474875;251;1170;-52
2022/10/31 11:24:27;;;;;;;;;;;22.80;47.00;;;;;;474541;251;1522;-53
2022/10/31 11:26:27;;;;;;;;;;;22.80;47.00;;;;;;474586;251;2174;-52
2022/10/31 11:28:29;;;;;;;;;;;22.80;47.00;;;;;;474765;251;1299;-53
2022/10/31 11:30:31;;;;;;;;;;;22.80;47.00;;;;;;474586;251;1380;-52
2022/10/31 11:32:32;;;;;;;;;;;22.80;47.00;;;;;;474885;251;1321;-52
2022/10/31 11:34:33;;;;;;;;;;;22.80;47.10;;;;;;474679;251;1208;-52
2022/10/31 11:36:35;;;;;;;;;;;22.80;47.00;;;;;;474939;251;1269;-52
2022/10/31 11:38:36;;;;;;;;;;;22.80;47.00;;;;;;474974;251;1235;-52
2022/10/31 11:40:37;;;;;;;;;;;22.80;47.10;;;;;;474724;251;1176;-52
2022/10/31 11:42:39;;;;;;;;;;;22.80;47.10;;;;;;474642;251;1198;-53
2022/10/31 11:44:40;;;;;;;;;;;22.80;47.10;;;;;;475064;251;1231;-52
2022/10/31 11:46:41;;;;;;;;;;;22.80;47.00;;;;;;474950;251;2148;-52
2022/10/31 11:48:43;;;;;;;;;;;22.80;47.00;;;;;;474681;251;1317;-52
2022/10/31 11:50:44;;;;;;;;;;;22.80;47.10;;;;;;474988;251;1392;-52
2022/10/31 11:52:45;;;;;;;;;;;22.80;47.20;;;;;;474779;251;1183;-52
2022/10/31 11:54:47;;;;;;;;;;;22.80;47.20;;;;;;474711;251;1253;-52
2022/10/31 11:56:48;;;;;;;;;;;22.80;47.20;;;;;;474589;251;1217;-52
2022/10/31 11:58:49;;;;;;;;;;;22.80;47.20;;;;;;474967;251;1211;-52